Umar1 — 9HA2498 — position and weather

sailwx.info

Track history (hours):
 
Tides and Currents Weather Stations Pressure Air Temp Water Temp Dewpoint Dewpoint Depression Visibility Wind Speed Wind Dir Waves Ship Positions

Umar1

Last reported at 2015-Jan-31 18:33 UTC. Time now 2015-Jan-31 19:20 UTC.
Position N 41°39' E 004°07'.

Length 100 m; draft 4.9 m.

Type: Tanker. MMSI: 248751000.

Date/timePositionNaut miles runAvg speedWind from/ knotsBaromVisibWave heightAir tempDewpointWater temp
2015-Jan-31 18:33N 41°39' E 004°07'9 7.1
2015-Jan-31 17:16N 41°43' E 004°18'8 8.3
2015-Jan-31 16:17N 41°48' E 004°26'6 8.4
2015-Jan-31 15:34N 41°52' E 004°32'23 7.5
2015-Jan-31 12:27N 42°04' E 004°60'86 8.6
2015-Jan-31 02:27N 42°55' E 006°33'8 8.6
2015-Jan-31 01:33N 43°01' E 006°40'9 8.9
2015-Jan-31 00:34N 43°08' E 006°48'9 8.9
2015-Jan-30 23:33N 43°15' E 006°56'8 8.4
2015-Jan-30 22:33N 43°21' E 007°04'8 8.2
2015-Jan-30 21:34N 43°27' E 007°11'9 8.6
2015-Jan-30 20:34N 43°34' E 007°18'9 8.5
2015-Jan-30 19:33N 43°42' E 007°22'0 0.0
2015-Jan-30 18:31N 43°42' E 007°22'0 0.0
2015-Jan-30 17:31N 43°42' E 007°22'0 0.0
2015-Jan-30 16:31N 43°42' E 007°22'0 0.0
2015-Jan-30 15:31N 43°42' E 007°22'0 0.0
2015-Jan-30 14:31N 43°43' E 007°22'0 0.1
2015-Jan-30 13:31N 43°42' E 007°22'0 0.1
2015-Jan-30 12:31N 43°42' E 007°22'0 0.1
2015-Jan-30 11:25N 43°43' E 007°21'0 0.1
2015-Jan-30 10:31N 43°43' E 007°21'4 3.8
2015-Jan-30 09:33N 43°43' E 007°27'7 6.6
2015-Jan-30 08:33N 43°42' E 007°36'39 3.9
2015-Jan-29 22:26N 43°52' E 008°29'3 2.9
2015-Jan-29 21:33N 43°53' E 008°32'2 2.1
2015-Jan-29 20:30N 43°54' E 008°35'1 1.2
2015-Jan-29 19:33N 43°53' E 008°35'3 2.5
2015-Jan-29 18:30N 43°51' E 008°37'4 4.6
2015-Jan-29 17:33N 43°55' E 008°39'7 7.5
2015-Jan-29 16:34N 44°02' E 008°41'8 8.4
2015-Jan-29 15:33N 44°11' E 008°43'9 8.8
2015-Jan-29 14:33N 44°19' E 008°44'7 7.0
2015-Jan-29 13:33N 44°25' E 008°50'0 0.0
2015-Jan-29 04:14N 44°25' E 008°50'0 0.0
2015-Jan-29 03:32N 44°25' E 008°50'0 0.0
2015-Jan-28 07:32N 44°25' E 008°50'2 2.2
2015-Jan-28 06:34N 44°24' E 008°48'3 3.1
2015-Jan-28 05:34N 44°24' E 008°52'0 0.1
2015-Jan-28 04:33N 44°23' E 008°52'0 0.0
2015-Jan-28 03:34N 44°23' E 008°52'0 0.0
2015-Jan-28 02:33N 44°23' E 008°52'0 0.0
2015-Jan-28 01:33N 44°23' E 008°52'0 0.0
2015-Jan-28 00:30N 44°23' E 008°52'0 0.0
2015-Jan-27 23:33N 44°23' E 008°52'0 0.0
2015-Jan-27 22:33N 44°23' E 008°52'0 0.0
2015-Jan-27 21:33N 44°24' E 008°52'4 3.9
2015-Jan-27 20:33N 44°20' E 008°50'8 7.8
2015-Jan-27 19:33N 44°12' E 008°53'8 8.2
2015-Jan-27 18:33N 44°05' E 008°59'9 8.7
2015-Jan-27 17:33N 43°59' E 009°06'9 8.8
2015-Jan-27 16:33N 43°51' E 009°12'9 9.4
2015-Jan-27 15:33N 43°42' E 009°17'9 9.5
2015-Jan-27 14:33N 43°33' E 009°22'9 9.4
2015-Jan-27 13:33N 43°24' E 009°26'9 9.3
2015-Jan-27 12:33N 43°16' E 009°31'394 9.1
2015-Jan-25 17:18N 38°29' E 015°29'7 8.9
2015-Jan-25 16:31N 38°24' E 015°35'9 8.7
2015-Jan-25 15:28N 38°17' E 015°43'8 8.0
2015-Jan-25 14:26N 38°11' E 015°37'8 9.4
2015-Jan-25 13:33N 38°03' E 015°36'10 9.0
2015-Jan-25 12:25N 37°53' E 015°41'  
2015-Jan-23 02:32N 35°42' E 024°40'9 9.5
2015-Jan-23 01:33N 35°40' E 024°51'9 9.4
2015-Jan-23 00:33N 35°37' E 025°02'9 9.0
2015-Jan-22 23:32N 35°34' E 025°13'70 9.3
2015-Jan-22 16:03N 35°20' E 026°37'710.5
2015-Jan-22 15:25N 35°17' E 026°44'1310.3
2015-Jan-22 14:11N 35°13' E 026°59'8 9.9
2015-Jan-22 13:22N 35°10' E 027°08'  
Track history (hours):
 
Tides and Currents Weather Stations Pressure Air Temp Water Temp Dewpoint Dewpoint Depression Visibility Wind Speed Wind Dir Waves Ship Positions

Umar1

Last reported at 2015-Jan-31 18:33 UTC. Time now 2015-Jan-31 19:20 UTC.
Position N 41°39' E 004°07'.

Length 100 m; draft 4.9 m.

Type: Tanker. MMSI: 248751000.

Date/timePositionNaut miles runAvg speedWind from/ knotsBaromVisibWave heightAir tempDewpointWater temp
2015-Jan-31 18:33N 41°39' E 004°07'9 7.1
2015-Jan-31 17:16N 41°43' E 004°18'8 8.3
2015-Jan-31 16:17N 41°48' E 004°26'6 8.4
2015-Jan-31 15:34N 41°52' E 004°32'23 7.5
2015-Jan-31 12:27N 42°04' E 004°60'86 8.6
2015-Jan-31 02:27N 42°55' E 006°33'8 8.6
2015-Jan-31 01:33N 43°01' E 006°40'9 8.9
2015-Jan-31 00:34N 43°08' E 006°48'9 8.9
2015-Jan-30 23:33N 43°15' E 006°56'8 8.4
2015-Jan-30 22:33N 43°21' E 007°04'8 8.2
2015-Jan-30 21:34N 43°27' E 007°11'9 8.6
2015-Jan-30 20:34N 43°34' E 007°18'9 8.5
2015-Jan-30 19:33N 43°42' E 007°22'0 0.0
2015-Jan-30 18:31N 43°42' E 007°22'0 0.0
2015-Jan-30 17:31N 43°42' E 007°22'0 0.0
2015-Jan-30 16:31N 43°42' E 007°22'0 0.0
2015-Jan-30 15:31N 43°42' E 007°22'0 0.0
2015-Jan-30 14:31N 43°43' E 007°22'0 0.1
2015-Jan-30 13:31N 43°42' E 007°22'0 0.1
2015-Jan-30 12:31N 43°42' E 007°22'0 0.1
2015-Jan-30 11:25N 43°43' E 007°21'0 0.1
2015-Jan-30 10:31N 43°43' E 007°21'4 3.8
2015-Jan-30 09:33N 43°43' E 007°27'7 6.6
2015-Jan-30 08:33N 43°42' E 007°36'39 3.9
2015-Jan-29 22:26N 43°52' E 008°29'3 2.9
2015-Jan-29 21:33N 43°53' E 008°32'2 2.1
2015-Jan-29 20:30N 43°54' E 008°35'1 1.2
2015-Jan-29 19:33N 43°53' E 008°35'3 2.5
2015-Jan-29 18:30N 43°51' E 008°37'4 4.6
2015-Jan-29 17:33N 43°55' E 008°39'7 7.5
2015-Jan-29 16:34N 44°02' E 008°41'8 8.4
2015-Jan-29 15:33N 44°11' E 008°43'9 8.8
2015-Jan-29 14:33N 44°19' E 008°44'7 7.0
2015-Jan-29 13:33N 44°25' E 008°50'0 0.0
2015-Jan-29 04:14N 44°25' E 008°50'0 0.0
2015-Jan-29 03:32N 44°25' E 008°50'0 0.0
2015-Jan-28 07:32N 44°25' E 008°50'2 2.2
2015-Jan-28 06:34N 44°24' E 008°48'3 3.1
2015-Jan-28 05:34N 44°24' E 008°52'0 0.1
2015-Jan-28 04:33N 44°23' E 008°52'0 0.0
2015-Jan-28 03:34N 44°23' E 008°52'0 0.0
2015-Jan-28 02:33N 44°23' E 008°52'0 0.0
2015-Jan-28 01:33N 44°23' E 008°52'0 0.0
2015-Jan-28 00:30N 44°23' E 008°52'0 0.0
2015-Jan-27 23:33N 44°23' E 008°52'0 0.0
2015-Jan-27 22:33N 44°23' E 008°52'0 0.0
2015-Jan-27 21:33N 44°24' E 008°52'4 3.9
2015-Jan-27 20:33N 44°20' E 008°50'8 7.8
2015-Jan-27 19:33N 44°12' E 008°53'8 8.2
2015-Jan-27 18:33N 44°05' E 008°59'9 8.7
2015-Jan-27 17:33N 43°59' E 009°06'9 8.8
2015-Jan-27 16:33N 43°51' E 009°12'9 9.4
2015-Jan-27 15:33N 43°42' E 009°17'9 9.5
2015-Jan-27 14:33N 43°33' E 009°22'9 9.4
2015-Jan-27 13:33N 43°24' E 009°26'9 9.3
2015-Jan-27 12:33N 43°16' E 009°31'394 9.1
2015-Jan-25 17:18N 38°29' E 015°29'7 8.9
2015-Jan-25 16:31N 38°24' E 015°35'9 8.7
2015-Jan-25 15:28N 38°17' E 015°43'8 8.0
2015-Jan-25 14:26N 38°11' E 015°37'8 9.4
2015-Jan-25 13:33N 38°03' E 015°36'10 9.0
2015-Jan-25 12:25N 37°53' E 015°41'  
2015-Jan-23 02:32N 35°42' E 024°40'9 9.5
2015-Jan-23 01:33N 35°40' E 024°51'9 9.4
2015-Jan-23 00:33N 35°37' E 025°02'9 9.0
2015-Jan-22 23:32N 35°34' E 025°13'70 9.3
2015-Jan-22 16:03N 35°20' E 026°37'710.5
2015-Jan-22 15:25N 35°17' E 026°44'1310.3
2015-Jan-22 14:11N 35°13' E 026°59'8 9.9
2015-Jan-22 13:22N 35°10' E 027°08'  

Dump ship's entire track history